Time;durP1;ratioP1;P1;durP2;ratioP2;P2;SDS_P1;SDS_P2;PMS_P1;PMS_P2;Temp;Humidity;BMP_temperature;BMP_pressure;BME280_temperature;BME280_humidity;BME280_pressure;Samples;Min_cycle;Max_cycle;Signal;HPM_P1;HPM_P2
2021/01/06 00:01:04;;;;;;;2.97;1.97;;;3.50;1.00;;;;;;5078709;28;20521;-60
2021/01/06 00:03:30;;;;;;;4.10;3.23;;;3.30;1.00;;;;;;5077905;28;20246;-57
2021/01/06 00:05:59;;;;;;;3.33;2.30;;;3.20;1.00;;;;;;5078375;28;20188;-58
2021/01/06 00:08:26;;;;;;;3.28;2.38;;;3.20;1.00;;;;;;5078441;28;20199;-60
2021/01/06 00:10:59;;;;;;;3.63;2.58;;;3.20;1.00;;;;;;5078169;28;20204;-59
2021/01/06 00:13:25;;;;;;;4.70;2.75;;;3.10;1.00;;;;;;5078210;28;20240;-59
2021/01/06 00:15:51;;;;;;;3.58;2.67;;;3.20;1.00;;;;;;5078370;28;20180;-60
2021/01/06 00:18:17;;;;;;;3.03;2.47;;;3.10;1.00;;;;;;5078475;28;20216;-60
2021/01/06 00:20:43;;;;;;;4.60;2.90;;;3.10;1.00;;;;;;5078248;28;20177;-59
2021/01/06 00:23:10;;;;;;;7.07;2.20;;;3.10;1.00;;;;;;5076944;28;20272;-59
2021/01/06 00:25:41;;;;;;;2.88;2.63;;;2.90;1.00;;;;;;5076365;28;20437;-61
2021/01/06 00:28:07;;;;;;;3.13;1.98;;;2.80;1.00;;;;;;5077424;28;20351;-60
2021/01/06 00:30:35;;;;;;;4.70;2.00;;;2.90;1.00;;;;;;5076701;28;20625;-60
2021/01/06 00:33:04;;;;;;;3.55;2.35;;;2.90;1.00;;;;;;5075232;28;20196;-60
2021/01/06 00:35:29;;;;;;;4.85;2.10;;;2.80;1.00;;;;;;5074799;28;20203;-60
2021/01/06 00:37:58;;;;;;;4.87;2.40;;;2.90;1.00;;;;;;5074707;28;20205;-60
2021/01/06 00:40:30;;;;;;;3.28;2.28;;;2.80;1.00;;;;;;5075207;28;20168;-60
2021/01/06 00:43:00;;;;;;;3.20;2.40;;;2.70;1.00;;;;;;5075173;28;20561;-60
2021/01/06 00:45:26;;;;;;;3.20;2.40;;;2.80;1.00;;;;;;5075114;28;20196;-61
2021/01/06 00:47:53;;;;;;;6.97;2.00;;;2.70;1.00;;;;;;5075461;28;20260;-61
2021/01/06 00:50:24;;;;;;;3.22;2.20;;;2.70;1.00;;;;;;5075386;28;20187;-61
2021/01/06 00:52:49;;;;;;;6.20;2.50;;;2.80;1.00;;;;;;5075503;28;20196;-60
2021/01/06 00:55:15;;;;;;;1.50;1.37;;;2.70;1.00;;;;;;5076375;28;20622;-59
2021/01/06 00:57:41;;;;;;;5.80;2.07;;;2.70;1.00;;;;;;5076302;28;20242;-61
2021/01/06 01:00:15;;;;;;;3.90;2.17;;;2.70;1.00;;;;;;5076048;28;20957;-61
2021/01/06 01:02:44;;;;;;;5.18;3.05;;;2.70;1.00;;;;;;5076479;28;20233;-61
2021/01/06 01:05:10;;;;;;;2.92;2.15;;;2.70;1.00;;;;;;5076104;28;20180;-61
2021/01/06 01:07:36;;;;;;;2.78;2.25;;;2.70;1.00;;;;;;5076081;28;20267;-61
2021/01/06 01:10:02;;;;;;;4.93;2.33;;;2.80;1.00;;;;;;5076126;28;20220;-61
2021/01/06 01:12:28;;;;;;;4.63;2.97;;;2.60;1.00;;;;;;5075814;28;20169;-59
2021/01/06 01:14:53;;;;;;;5.07;2.20;;;2.60;1.00;;;;;;5075401;28;20189;-59
2021/01/06 01:17:19;;;;;;;2.70;2.20;;;2.60;1.00;;;;;;5075648;28;20221;-59
2021/01/06 01:19:44;;;;;;;2.37;1.80;;;2.70;1.00;;;;;;5075794;28;20173;-59
2021/01/06 01:22:10;;;;;;;2.77;1.90;;;2.70;1.00;;;;;;5075690;28;20238;-58
2021/01/06 01:24:36;;;;;;;5.07;2.20;;;2.60;1.00;;;;;;5075405;28;20263;-58
2021/01/06 01:27:02;;;;;;;2.33;2.13;;;2.70;1.00;;;;;;5075368;28;20184;-59
2021/01/06 01:29:27;;;;;;;4.63;2.40;;;2.60;1.00;;;;;;5075923;28;20180;-58
2021/01/06 01:31:53;;;;;;;4.23;3.13;;;2.70;1.00;;;;;;5075451;28;20176;-57
2021/01/06 01:34:19;;;;;;;3.73;2.73;;;2.70;1.00;;;;;;5075365;28;20557;-59
2021/01/06 01:36:49;;;;;;;4.27;2.30;;;2.60;1.00;;;;;;5075384;28;20515;-59
2021/01/06 01:39:16;;;;;;;5.13;3.67;;;2.60;1.00;;;;;;5075234;28;20172;-57
2021/01/06 01:41:42;;;;;;;3.72;2.13;;;2.70;1.00;;;;;;5075358;28;20698;-58
2021/01/06 01:44:10;;;;;;;4.10;2.90;;;2.50;1.00;;;;;;5074866;28;20176;-58
2021/01/06 01:47:03;;;;;;;3.85;2.15;;;2.50;1.00;;;;;;5075238;28;20411;-58
2021/01/06 01:49:39;;;;;;;6.03;2.83;;;2.70;1.00;;;;;;5068119;28;20199;-59
2021/01/06 01:52:14;;;;;;;4.65;2.97;;;2.60;1.00;;;;;;5075253;28;20180;-58
2021/01/06 01:54:40;;;;;;;4.22;2.40;;;2.70;1.00;;;;;;5074659;28;20230;-58
2021/01/06 01:57:11;;;;;;;4.13;2.10;;;2.70;1.00;;;;;;5074192;28;20208;-61
2021/01/06 01:59:49;;;;;;;2.70;2.10;;;2.70;1.00;;;;;;5074606;28;20514;-59
2021/01/06 02:02:41;;;;;;;3.83;2.45;;;2.60;1.00;;;;;;5075249;28;20345;-59
2021/01/06 02:05:10;;;;;;;3.45;2.45;;;2.60;1.00;;;;;;5055548;28;20261;-59
2021/01/06 02:07:42;;;;;;;3.85;2.30;;;2.60;1.00;;;;;;5075112;28;20191;-59
2021/01/06 02:10:40;;;;;;;4.05;2.67;;;2.60;1.00;;;;;;5074982;28;20188;-59
2021/01/06 02:13:30;;;;;;;2.95;1.98;;;2.60;1.00;;;;;;5074132;28;20629;-59
2021/01/06 02:16:03;;;;;;;2.42;1.88;;;2.60;1.00;;;;;;5074844;28;20641;-59
2021/01/06 02:18:29;;;;;;;3.65;2.78;;;2.50;1.00;;;;;;5074567;28;20324;-59
2021/01/06 02:21:00;;;;;;;4.53;1.40;;;2.50;1.00;;;;;;5074722;28;20635;-59
2021/01/06 02:23:26;;;;;;;2.50;2.25;;;2.40;1.00;;;;;;5074370;28;20180;-60
2021/01/06 02:25:52;;;;;;;1.90;1.43;;;2.40;1.00;;;;;;5074398;28;20181;-59
2021/01/06 02:28:17;;;;;;;2.27;2.10;;;2.40;99.90;;;;;;5074509;28;20185;-59
2021/01/06 02:30:43;;;;;;;3.07;1.60;;;2.40;99.90;;;;;;5074412;28;20185;-58
2021/01/06 02:33:08;;;;;;;1.50;1.07;;;2.40;99.90;;;;;;5074002;28;20604;-58
2021/01/06 02:35:34;;;;;;;2.40;2.03;;;2.40;99.90;;;;;;5074280;28;20180;-58
2021/01/06 02:37:59;;;;;;;3.23;2.20;;;2.30;99.90;;;;;;5074073;28;20212;-58
2021/01/06 02:40:25;;;;;;;3.53;1.73;;;2.40;99.90;;;;;;5074210;28;20259;-58
2021/01/06 02:42:52;;;;;;;1.80;1.50;;;2.50;99.90;;;;;;5074075;28;20457;-58
2021/01/06 02:45:19;;;;;;;4.05;1.80;;;2.40;99.90;;;;;;5074327;28;20454;-59
2021/01/06 02:47:48;;;;;;;4.18;2.05;;;2.40;99.90;;;;;;5074401;28;20640;-59
2021/01/06 02:50:17;;;;;;;3.63;2.17;;;2.50;99.90;;;;;;5074390;28;20256;-59
2021/01/06 02:53:05;;;;;;;3.00;1.88;;;2.40;99.90;;;;;;5074299;28;20234;-59
2021/01/06 02:55:34;;;;;;;2.17;1.95;;;2.50;99.90;;;;;;5073985;28;20527;-59
2021/01/06 02:58:05;;;;;;;1.92;1.60;;;2.60;99.90;;;;;;5073918;28;20204;-59
2021/01/06 03:00:31;;;;;;;2.47;2.25;;;2.40;1.00;;;;;;5073978;28;20220;-59
2021/01/06 03:02:57;;;;;;;4.87;2.40;;;2.50;1.00;;;;;;5073887;28;20203;-59
2021/01/06 03:05:33;;;;;;;3.17;1.92;;;2.50;1.00;;;;;;5073491;28;20248;-59
2021/01/06 03:07:59;;;;;;;6.35;3.65;;;2.60;1.00;;;;;;5073887;28;20613;-59
2021/01/06 03:10:25;;;;;;;2.95;2.42;;;2.60;1.00;;;;;;5073498;28;20276;-59
2021/01/06 03:12:53;;;;;;;3.20;2.40;;;2.60;1.00;;;;;;5072953;28;20219;-59
2021/01/06 03:15:22;;;;;;;2.72;1.75;;;2.50;1.00;;;;;;5073361;28;20181;-59
2021/01/06 03:17:49;;;;;;;5.25;2.92;;;2.50;1.00;;;;;;5073491;28;20208;-60
2021/01/06 03:20:43;;;;;;;3.60;2.35;;;2.50;1.00;;;;;;5073552;28;20179;-59
2021/01/06 03:23:17;;;;;;;2.60;1.90;;;2.50;1.00;;;;;;5071126;28;20280;-60
2021/01/06 03:25:44;;;;;;;7.68;2.83;;;2.40;1.00;;;;;;5073556;28;20204;-60
2021/01/06 03:28:12;;;;;;;4.47;2.55;;;2.60;1.00;;;;;;5074322;28;20192;-60
2021/01/06 03:30:39;;;;;;;3.47;2.47;;;2.60;1.00;;;;;;5073449;28;20692;-59
2021/01/06 03:33:23;;;;;;;4.50;2.72;;;2.60;1.00;;;;;;5073397;28;20671;-60
2021/01/06 03:35:54;;;;;;;2.88;2.25;;;2.50;1.00;;;;;;5073425;28;20462;-60
2021/01/06 03:38:33;;;;;;;3.67;2.67;;;2.50;1.00;;;;;;5073350;28;20204;-59
2021/01/06 03:41:00;;;;;;;2.20;1.90;;;2.50;1.00;;;;;;5073338;28;20255;-60
2021/01/06 03:43:30;;;;;;;4.13;3.22;;;2.40;99.90;;;;;;5073128;28;20187;-59
2021/01/06 03:46:04;;;;;;;3.95;3.55;;;2.50;99.90;;;;;;5073319;28;20200;-59
2021/01/06 03:48:49;;;;;;;3.80;2.83;;;2.50;99.90;;;;;;5073227;28;20639;-60
2021/01/06 03:51:21;;;;;;;4.63;3.80;;;2.70;99.90;;;;;;5073216;28;20180;-60
2021/01/06 03:53:48;;;;;;;3.15;2.47;;;2.60;99.90;;;;;;5072867;28;20226;-60
2021/01/06 03:56:22;;;;;;;9.35;3.42;;;2.60;99.90;;;;;;5073026;28;20191;-60
2021/01/06 03:59:10;;;;;;;3.63;2.80;;;2.70;99.90;;;;;;5073000;28;20208;-59
2021/01/06 04:02:02;;;;;;;3.45;2.20;;;2.50;99.90;;;;;;5073116;28;20242;-59
2021/01/06 04:04:38;;;;;;;5.60;3.17;;;2.60;99.90;;;;;;5072857;28;20239;-60
2021/01/06 04:07:05;;;;;;;2.20;1.85;;;2.70;99.90;;;;;;5071728;28;20203;-60
2021/01/06 04:09:39;;;;;;;6.43;3.22;;;2.70;99.90;;;;;;5072918;28;20185;-60
2021/01/06 04:12:11;;;;;;;1.83;1.73;;;2.50;99.90;;;;;;5073055;28;20557;-59
2021/01/06 04:14:37;;;;;;;3.45;2.88;;;2.50;99.90;;;;;;5072734;28;20632;-60
2021/01/06 04:17:15;;;;;;;5.40;2.90;;;2.60;99.90;;;;;;5072956;28;20286;-60
2021/01/06 04:19:51;;;;;;;3.08;2.67;;;2.70;99.90;;;;;;5072995;28;20172;-60
2021/01/06 04:22:37;;;;;;;3.70;2.88;;;2.60;99.90;;;;;;5073222;28;20255;-59
2021/01/06 04:25:06;;;;;;;4.85;3.60;;;2.50;99.90;;;;;;5076524;28;20247;-59
2021/01/06 04:27:32;;;;;;;6.60;3.38;;;2.50;99.90;;;;;;5076481;28;20260;-60
2021/01/06 04:29:57;;;;;;;4.60;3.03;;;2.70;99.90;;;;;;5076661;28;20260;-60
2021/01/06 04:32:29;;;;;;;4.03;3.00;;;2.40;99.90;;;;;;5076587;28;20460;-59
2021/01/06 04:34:55;;;;;;;2.85;1.75;;;2.50;99.90;;;;;;5076270;28;20271;-60
2021/01/06 04:37:20;;;;;;;3.23;2.00;;;2.50;99.90;;;;;;5076286;28;20250;-59
2021/01/06 04:39:46;;;;;;;3.70;2.23;;;2.50;99.90;;;;;;5076300;28;20278;-59
2021/01/06 04:42:11;;;;;;;5.20;3.73;;;2.40;99.90;;;;;;5076285;28;20204;-59
2021/01/06 04:44:57;;;;;;;4.93;3.27;;;2.50;99.90;;;;;;5076076;28;20533;-60
2021/01/06 04:47:29;;;;;;;4.85;3.28;;;2.50;99.90;;;;;;5076308;28;20272;-60
2021/01/06 04:50:13;;;;;;;4.80;3.15;;;2.50;99.90;;;;;;5076119;28;20238;-59
2021/01/06 04:53:04;;;;;;;4.88;3.40;;;2.50;99.90;;;;;;5076037;28;20176;-59
2021/01/06 04:55:41;;;;;;;2.60;2.40;;;2.50;99.90;;;;;;5075803;28;20291;-59
2021/01/06 04:58:52;;;;;;;3.90;1.83;;;2.40;99.90;;;;;;5075951;28;20204;-59
2021/01/06 05:01:27;;;;;;;4.43;1.92;;;2.30;99.90;;;;;;5076058;28;20192;-59
2021/01/06 05:04:26;;;;;;;5.32;4.03;;;2.30;99.90;;;;;;5075703;28;20537;-59
2021/01/06 05:07:13;;;;;;;2.75;2.35;;;2.40;99.90;;;;;;5075843;28;20195;-60
2021/01/06 05:10:00;;;;;;;3.92;2.78;;;2.40;99.90;;;;;;5074743;28;20180;-60
2021/01/06 05:12:38;;;;;;;2.95;2.45;;;2.40;99.90;;;;;;5075838;28;20180;-60
2021/01/06 05:15:10;;;;;;;3.50;2.45;;;2.40;99.90;;;;;;5075454;28;20202;-60
2021/01/06 05:17:37;;;;;;;6.28;3.28;;;2.50;99.90;;;;;;5075489;28;20212;-60
2021/01/06 05:20:04;;;;;;;5.38;3.30;;;2.40;99.90;;;;;;5075474;28;20199;-59
2021/01/06 05:22:29;;;;;;;6.45;3.40;;;2.40;99.90;;;;;;5075396;28;20204;-60
2021/01/06 05:24:55;;;;;;;4.80;3.40;;;2.50;99.90;;;;;;5075270;28;20200;-59
2021/01/06 05:27:29;;;;;;;6.27;3.90;;;2.50;99.90;;;;;;5075796;28;20246;-59
2021/01/06 05:30:00;;;;;;;5.30;3.05;;;2.40;99.90;;;;;;5075963;28;20212;-59
2021/01/06 05:32:35;;;;;;;4.95;2.05;;;2.40;99.90;;;;;;5075395;28;20569;-59
2021/01/06 05:35:13;;;;;;;5.03;2.08;;;2.40;99.90;;;;;;5074465;28;20191;-59
2021/01/06 05:37:38;;;;;;;3.97;3.63;;;2.40;99.90;;;;;;5075109;28;20239;-59
2021/01/06 05:40:10;;;;;;;1.90;1.80;;;2.30;99.90;;;;;;5075313;28;20216;-59
2021/01/06 05:42:54;;;;;;;3.67;2.40;;;2.30;99.90;;;;;;5075316;28;20200;-59
2021/01/06 05:45:23;;;;;;;4.72;2.80;;;2.40;99.90;;;;;;5074956;28;20204;-59
2021/01/06 05:47:55;;;;;;;4.30;3.63;;;2.50;99.90;;;;;;5075049;28;20279;-59
2021/01/06 05:50:29;;;;;;;4.15;3.00;;;2.50;99.90;;;;;;5075230;28;20271;-59
2021/01/06 05:53:04;;;;;;;5.25;3.60;;;2.40;99.90;;;;;;5075088;28;20172;-59
2021/01/06 05:55:34;;;;;;;4.75;2.95;;;2.50;99.90;;;;;;5074993;28;20180;-59
2021/01/06 05:58:22;;;;;;;6.07;3.75;;;2.70;99.90;;;;;;5074173;28;20220;-59
2021/01/06 06:01:07;;;;;;;4.10;3.20;;;2.60;99.90;;;;;;5075017;28;20258;-59
2021/01/06 06:04:02;;;;;;;5.25;4.15;;;2.60;99.90;;;;;;5074591;28;20177;-60
2021/01/06 06:06:48;;;;;;;5.65;3.95;;;2.60;99.90;;;;;;5090924;28;20189;-59
2021/01/06 06:09:38;;;;;;;11.68;4.70;;;2.60;99.90;;;;;;5075066;28;20238;-59
2021/01/06 06:12:25;;;;;;;6.35;3.60;;;2.50;99.90;;;;;;5074926;28;20172;-59
2021/01/06 06:15:13;;;;;;;3.28;2.60;;;2.40;99.90;;;;;;5074341;28;20261;-59
2021/01/06 06:17:47;;;;;;;6.45;3.63;;;2.40;99.90;;;;;;5074587;28;20196;-60
2021/01/06 06:20:43;;;;;;;3.85;2.90;;;2.30;99.90;;;;;;5074837;28;20611;-60
2021/01/06 06:23:12;;;;;;;3.88;3.33;;;2.50;99.90;;;;;;5073404;28;20173;-60
2021/01/06 06:25:48;;;;;;;4.60;2.95;;;2.40;99.90;;;;;;5074472;28;20264;-61
2021/01/06 06:28:22;;;;;;;6.95;4.13;;;2.50;99.90;;;;;;5074238;28;20176;-60
2021/01/06 06:31:00;;;;;;;4.20;3.58;;;2.40;99.90;;;;;;5074366;28;20631;-60
2021/01/06 06:33:34;;;;;;;7.63;4.00;;;2.50;99.90;;;;;;5074186;28;20180;-61
2021/01/06 06:36:09;;;;;;;4.85;2.88;;;2.50;99.90;;;;;;5074794;28;20184;-61
2021/01/06 06:38:42;;;;;;;4.68;2.95;;;2.50;99.90;;;;;;5074291;28;20234;-60
2021/01/06 06:41:23;;;;;;;6.47;3.55;;;2.30;99.90;;;;;;5074004;28;20169;-60
2021/01/06 06:43:52;;;;;;;5.25;3.25;;;2.40;99.90;;;;;;5073917;28;20177;-60
2021/01/06 06:46:50;;;;;;;4.35;2.92;;;2.40;99.90;;;;;;5074148;28;20246;-61
2021/01/06 06:49:52;;;;;;;9.98;3.95;;;2.40;99.90;;;;;;5074388;28;20179;-65
2021/01/06 06:52:26;;;;;;;4.80;3.42;;;2.40;1.00;;;;;;5073919;28;20195;-59
2021/01/06 06:55:22;;;;;;;3.85;3.33;;;2.40;1.00;;;;;;5073558;28;20247;-59
2021/01/06 06:58:06;;;;;;;2.58;2.35;;;2.30;1.00;;;;;;5073943;28;20219;-59
2021/01/06 07:00:36;;;;;;;5.95;3.88;;;2.10;1.00;;;;;;5073802;28;20678;-58
2021/01/06 07:03:05;;;;;;;8.80;3.92;;;2.20;1.00;;;;;;5073718;28;20209;-59
2021/01/06 07:05:55;;;;;;;2.05;1.75;;;2.20;1.00;;;;;;5072691;28;20282;-60
2021/01/06 07:08:33;;;;;;;6.78;3.78;;;2.20;1.00;;;;;;5073618;28;20177;-60
2021/01/06 07:11:00;;;;;;;4.82;3.50;;;2.30;1.00;;;;;;5073862;28;20181;-60
2021/01/06 07:13:27;;;;;;;6.90;3.95;;;2.10;1.00;;;;;;5073444;28;20299;-60
2021/01/06 07:16:06;;;;;;;6.65;4.75;;;2.10;1.00;;;;;;5073884;28;20473;-60
2021/01/06 07:18:37;;;;;;;3.63;3.33;;;2.20;1.00;;;;;;5073850;28;20348;-60
2021/01/06 07:21:06;;;;;;;5.90;3.47;;;2.40;1.00;;;;;;5073990;28;20271;-58
2021/01/06 07:23:34;;;;;;;6.00;3.90;;;2.30;1.00;;;;;;5073558;28;20222;-58
2021/01/06 07:26:11;;;;;;;5.68;3.92;;;2.30;1.00;;;;;;5073882;28;20177;-58
2021/01/06 07:28:37;;;;;;;7.45;4.70;;;2.20;1.00;;;;;;5074020;28;20200;-58
2021/01/06 07:31:24;;;;;;;6.07;4.10;;;2.10;12.60;;;;;;5073604;28;20616;-58
2021/01/06 07:33:56;;;;;;;5.18;3.50;;;2.20;24.90;;;;;;5073360;28;20434;-57
2021/01/06 07:36:44;;;;;;;7.63;4.15;;;2.00;30.10;;;;;;5073822;28;20181;-59
2021/01/06 07:39:28;;;;;;;4.88;3.47;;;2.10;51.80;;;;;;5073698;28;20381;-59
2021/01/06 07:41:54;;;;;;;6.18;4.45;;;2.10;68.70;;;;;;5089231;28;20237;-59
2021/01/06 07:44:22;;;;;;;8.70;4.30;;;2.20;77.50;;;;;;5073594;28;20188;-59
2021/01/06 07:47:04;;;;;;;5.20;4.18;;;2.10;91.30;;;;;;5073695;28;20505;-58
2021/01/06 07:49:45;;;;;;;7.70;4.10;;;2.00;97.40;;;;;;5073723;28;20229;-60
2021/01/06 07:52:48;;;;;;;5.00;3.63;;;1.90;99.90;;;;;;5072350;28;20180;-61
2021/01/06 07:55:35;;;;;;;7.88;5.05;;;2.00;99.90;;;;;;5073185;28;20176;-59
2021/01/06 07:58:07;;;;;;;5.95;4.22;;;1.90;99.90;;;;;;5074102;28;20661;-59
2021/01/06 08:00:59;;;;;;;5.22;3.83;;;2.20;99.90;;;;;;5077024;28;20196;-57
2021/01/06 08:03:50;;;;;;;6.00;4.40;;;2.10;99.90;;;;;;5077019;28;20803;-60
2021/01/06 08:06:20;;;;;;;9.40;5.60;;;2.00;99.90;;;;;;5077132;28;20177;-60
2021/01/06 08:08:49;;;;;;;5.47;3.70;;;2.10;99.90;;;;;;5076924;28;20188;-60
2021/01/06 08:11:17;;;;;;;5.43;3.13;;;2.00;99.90;;;;;;5077016;28;20177;-59
2021/01/06 08:13:48;;;;;;;7.97;4.32;;;2.10;99.90;;;;;;5076501;28;20181;-60
2021/01/06 08:16:32;;;;;;;5.97;4.63;;;2.20;99.90;;;;;;5077153;28;20286;-59
2021/01/06 08:19:29;;;;;;;4.25;2.90;;;2.10;99.90;;;;;;5076783;28;20652;-59
2021/01/06 08:22:27;;;;;;;6.82;4.32;;;2.00;99.90;;;;;;5075680;28;20184;-62
2021/01/06 08:25:21;;;;;;;6.20;4.68;;;2.10;99.90;;;;;;5075659;28;20259;-61
2021/01/06 08:27:46;;;;;;;5.00;3.78;;;2.00;99.90;;;;;;5075611;28;20235;-61
2021/01/06 08:30:20;;;;;;;6.50;4.77;;;1.90;99.90;;;;;;5076226;28;20184;-63
2021/01/06 08:32:48;;;;;;;8.98;4.30;;;1.90;99.90;;;;;;5084866;28;20442;-61
2021/01/06 08:35:20;;;;;;;7.72;4.30;;;1.90;99.90;;;;;;5075332;28;20296;-61
2021/01/06 08:37:50;;;;;;;4.30;3.80;;;1.90;99.90;;;;;;5076798;28;20204;-62
2021/01/06 08:40:31;;;;;;;6.40;4.40;;;1.90;99.90;;;;;;5076869;28;20179;-61
2021/01/06 08:42:58;;;;;;;12.98;4.40;;;1.80;99.90;;;;;;5077322;28;20187;-62
2021/01/06 08:45:31;;;;;;;7.65;5.00;;;1.80;99.90;;;;;;5076604;28;20184;-62
2021/01/06 08:48:11;;;;;;;9.73;4.22;;;1.70;99.90;;;;;;5077122;28;20191;-64
2021/01/06 08:50:39;;;;;;;6.25;3.70;;;1.80;99.90;;;;;;5076933;28;20238;-63
2021/01/06 08:53:06;;;;;;;5.20;4.40;;;1.80;99.90;;;;;;5076880;28;20189;-62
2021/01/06 08:55:41;;;;;;;8.43;4.10;;;1.80;99.90;;;;;;5077039;28;20181;-62
2021/01/06 08:58:11;;;;;;;7.88;4.57;;;1.80;99.90;;;;;;5077190;28;20203;-61
2021/01/06 09:00:53;;;;;;;5.93;4.13;;;1.90;99.90;;;;;;5076761;28;20194;-61
2021/01/06 09:03:55;;;;;;;8.73;4.35;;;1.80;99.90;;;;;;5076349;28;20173;-64
2021/01/06 09:06:22;;;;;;;5.75;4.35;;;1.90;99.90;;;;;;5076570;28;20230;-62
2021/01/06 09:09:03;;;;;;;5.85;3.70;;;1.80;99.90;;;;;;5076548;28;20577;-60
2021/01/06 09:11:54;;;;;;;7.03;5.35;;;1.90;99.90;;;;;;5076158;28;20188;-62
2021/01/06 09:14:30;;;;;;;5.85;3.80;;;1.70;99.90;;;;;;5076456;28;20205;-63
2021/01/06 09:17:20;;;;;;;7.93;4.32;;;1.80;99.90;;;;;;5076282;28;20186;-63
2021/01/06 09:20:20;;;;;;;4.72;3.00;;;1.80;99.90;;;;;;5068782;28;20192;-63
2021/01/06 09:22:47;;;;;;;5.25;3.42;;;1.80;99.90;;;;;;5074182;28;20286;-63
2021/01/06 09:25:17;;;;;;;5.80;4.18;;;1.80;99.90;;;;;;5075921;28;20172;-65
2021/01/06 09:27:47;;;;;;;3.50;3.10;;;2.00;99.90;;;;;;5076234;28;20563;-64
2021/01/06 09:30:15;;;;;;;5.82;4.05;;;1.80;99.90;;;;;;5076288;28;20183;-65
2021/01/06 09:32:43;;;;;;;6.30;3.78;;;1.70;99.90;;;;;;5075871;28;20591;-63
2021/01/06 09:35:16;;;;;;;4.78;2.97;;;1.80;99.90;;;;;;5075932;28;20216;-62
2021/01/06 09:38:04;;;;;;;4.43;3.55;;;1.90;99.90;;;;;;5055750;28;20626;-62
2021/01/06 09:40:31;;;;;;;5.65;3.35;;;1.80;99.90;;;;;;5055002;28;20185;-64
2021/01/06 09:43:18;;;;;;;3.63;2.95;;;1.80;99.90;;;;;;5055988;28;20732;-61
2021/01/06 09:45:44;;;;;;;3.90;2.80;;;1.80;99.90;;;;;;5055721;28;20288;-59
2021/01/06 09:48:12;;;;;;;4.38;3.28;;;1.80;99.90;;;;;;5055531;28;20571;-60
2021/01/06 09:50:49;;;;;;;5.00;3.28;;;2.00;99.90;;;;;;5055399;28;20181;-62
2021/01/06 09:53:18;;;;;;;2.35;1.98;;;2.10;99.90;;;;;;5054255;28;20651;-62
2021/01/06 09:55:47;;;;;;;4.63;3.45;;;2.00;99.90;;;;;;5055400;28;20192;-61
2021/01/06 09:58:34;;;;;;;6.93;3.40;;;1.90;99.90;;;;;;5055747;28;20197;-58
2021/01/06 10:01:21;;;;;;;8.90;3.90;;;1.90;99.90;;;;;;5055553;28;20530;-59
2021/01/06 10:03:49;;;;;;;5.57;3.97;;;2.20;99.90;;;;;;5055484;28;20184;-59
2021/01/06 10:06:46;;;;;;;6.43;3.85;;;2.40;99.90;;;;;;5055498;28;20188;-59
2021/01/06 10:09:22;;;;;;;5.32;3.63;;;2.70;99.90;;;;;;5038317;28;20279;-63
2021/01/06 10:12:12;;;;;;;6.65;3.72;;;2.60;99.90;;;;;;5055384;28;20498;-61
2021/01/06 10:14:59;;;;;;;7.85;4.00;;;2.30;99.90;;;;;;5055055;28;20176;-60
2021/01/06 10:17:27;;;;;;;4.47;4.00;;;2.40;99.90;;;;;;5055069;28;20228;-61
2021/01/06 10:20:11;;;;;;;5.22;3.70;;;2.60;99.90;;;;;;5055131;28;20223;-65
2021/01/06 10:22:54;;;;;;;4.95;3.58;;;2.30;99.90;;;;;;5054824;28;20318;-62
2021/01/06 10:25:45;;;;;;;8.57;4.05;;;2.10;99.90;;;;;;5054930;28;20542;-61
2021/01/06 10:28:19;;;;;;;8.70;4.50;;;2.20;99.90;;;;;;5055106;28;20268;-62
2021/01/06 10:31:08;;;;;;;3.85;3.40;;;2.00;99.90;;;;;;5067313;28;20628;-65
2021/01/06 10:33:36;;;;;;;5.65;3.78;;;2.20;99.90;;;;;;5074311;28;20234;-60
2021/01/06 10:36:20;;;;;;;6.70;3.70;;;2.20;99.90;;;;;;5074944;28;20192;-61
2021/01/06 10:38:50;;;;;;;5.32;3.83;;;2.30;99.90;;;;;;5074854;28;20254;-60
2021/01/06 10:41:30;;;;;;;5.47;4.40;;;2.40;99.90;;;;;;5074836;28;20173;-60
2021/01/06 10:44:22;;;;;;;5.05;3.63;;;2.60;99.90;;;;;;5074712;28;20591;-61
2021/01/06 10:46:52;;;;;;;5.68;3.90;;;2.70;99.90;;;;;;5072689;28;20185;-60
2021/01/06 10:49:20;;;;;;;7.00;3.92;;;2.90;99.90;;;;;;5075052;28;20172;-60
2021/01/06 10:51:54;;;;;;;2.95;2.58;;;2.90;94.90;;;;;;5074806;28;20235;-62
2021/01/06 10:54:30;;;;;;;5.53;3.75;;;2.40;8.80;;;;;;5074807;28;20176;-60
2021/01/06 10:56:59;;;;;;;4.72;3.22;;;2.20;48.00;;;;;;5074662;28;20207;-61
2021/01/06 10:59:24;;;;;;;4.35;3.35;;;2.30;72.80;;;;;;5074386;28;20272;-59
2021/01/06 11:02:28;;;;;;;3.00;2.70;;;2.10;67.60;;;;;;5074669;28;20204;-61
2021/01/06 11:05:20;;;;;;;6.60;3.25;;;2.00;91.60;;;;;;5072163;28;20505;-60
2021/01/06 11:08:07;;;;;;;5.95;3.60;;;2.30;99.90;;;;;;5068458;28;20185;-61
2021/01/06 11:10:57;;;;;;;4.25;3.15;;;2.20;97.10;;;;;;5077661;28;20188;-62
2021/01/06 11:13:54;;;;;;;9.23;3.10;;;2.10;92.80;;;;;;5073855;28;20185;-60
2021/01/06 11:16:29;;;;;;;4.60;3.08;;;2.10;99.90;;;;;;5073621;28;20625;-60
2021/01/06 11:18:56;;;;;;;4.80;3.35;;;2.40;99.90;;;;;;5074362;28;20208;-60
2021/01/06 11:21:38;;;;;;;3.83;3.33;;;2.20;90.70;;;;;;5073841;28;20177;-59
2021/01/06 11:24:53;;;;;;;4.10;2.30;;;2.00;71.30;;;;;;5073336;28;20181;-59
2021/01/06 11:27:44;;;;;;;2.78;2.47;;;2.10;83.00;;;;;;5061868;28;20314;-60
2021/01/06 11:30:39;;;;;;;3.83;2.67;;;2.10;94.20;;;;;;5074844;28;20200;-60
2021/01/06 11:33:14;;;;;;;2.60;2.20;;;2.20;99.50;;;;;;5060891;28;20196;-60
2021/01/06 11:35:58;;;;;;;4.13;3.42;;;2.40;99.90;;;;;;5074136;28;20176;-60
2021/01/06 11:38:39;;;;;;;3.05;2.78;;;2.50;99.90;;;;;;5074110;28;20208;-60
2021/01/06 11:41:09;;;;;;;5.72;4.10;;;2.60;99.90;;;;;;5074091;28;20498;-60
2021/01/06 11:44:05;;;;;;;5.88;3.33;;;2.90;99.90;;;;;;5073866;28;20260;-60
2021/01/06 11:46:51;;;;;;;5.28;3.55;;;2.80;64.40;;;;;;5074075;28;20176;-60
2021/01/06 11:49:30;;;;;;;4.03;3.15;;;2.50;55.60;;;;;;5074384;28;20189;-60
2021/01/06 11:52:13;;;;;;;4.38;3.75;;;2.50;81.40;;;;;;5072198;28;20196;-60
2021/01/06 11:54:48;;;;;;;5.00;3.45;;;2.30;98.10;;;;;;5071376;28;20613;-60
2021/01/06 11:57:29;;;;;;;4.57;3.50;;;2.20;99.90;;;;;;5073626;28;20183;-63
2021/01/06 12:00:18;;;;;;;4.80;3.03;;;2.40;99.90;;;;;;5067274;28;20200;-62
2021/01/06 12:02:56;;;;;;;4.35;3.20;;;2.50;99.90;;;;;;5073677;28;20172;-62
2021/01/06 12:05:32;;;;;;;4.57;3.25;;;2.40;99.90;;;;;;5073135;28;20581;-61
2021/01/06 12:08:22;;;;;;;4.15;3.70;;;2.30;99.90;;;;;;5072827;28;20204;-60
2021/01/06 12:11:26;;;;;;;3.38;2.53;;;2.40;99.90;;;;;;5071457;28;20237;-60
2021/01/06 12:14:13;;;;;;;5.93;3.55;;;2.50;99.90;;;;;;5066199;28;20221;-61
2021/01/06 12:16:57;;;;;;;4.47;3.22;;;2.70;99.90;;;;;;5073576;28;20239;-59
2021/01/06 12:19:29;;;;;;;2.63;2.22;;;2.50;99.90;;;;;;5073786;28;20193;-60
2021/01/06 12:22:10;;;;;;;3.20;2.90;;;2.50;99.90;;;;;;5073660;28;20506;-60
2021/01/06 12:24:35;;;;;;;3.40;3.10;;;2.30;99.90;;;;;;5073495;28;20169;-60
2021/01/06 12:27:34;;;;;;;4.50;3.17;;;2.30;99.90;;;;;;5068667;28;20204;-60
2021/01/06 12:30:11;;;;;;;3.47;3.17;;;2.40;99.90;;;;;;5053781;28;20625;-59
2021/01/06 12:33:03;;;;;;;3.67;3.28;;;2.50;99.90;;;;;;5053385;28;20188;-59
2021/01/06 12:35:36;;;;;;;3.13;2.83;;;2.30;99.90;;;;;;5053120;28;20180;-58
2021/01/06 12:38:19;;;;;;;3.53;3.20;;;2.30;99.90;;;;;;5053491;28;20217;-61
2021/01/06 12:41:19;;;;;;;4.13;2.40;;;2.20;99.90;;;;;;5053339;28;20177;-61
2021/01/06 12:43:57;;;;;;;3.40;2.78;;;2.00;99.90;;;;;;5052789;28;20224;-62
2021/01/06 12:46:33;;;;;;;4.28;2.78;;;1.90;99.90;;;;;;5056968;28;20234;-64
2021/01/06 12:49:10;;;;;;;5.07;3.05;;;1.90;99.90;;;;;;5056770;28;20183;-63
2021/01/06 12:51:42;;;;;;;4.13;3.42;;;1.80;99.90;;;;;;5056778;28;20256;-63
2021/01/06 12:54:18;;;;;;;2.88;2.35;;;2.10;99.90;;;;;;5056648;28;20185;-63
2021/01/06 12:56:49;;;;;;;3.28;2.75;;;2.00;99.90;;;;;;5057301;28;20264;-62
2021/01/06 12:59:22;;;;;;;3.33;2.80;;;1.90;99.90;;;;;;5057035;28;20229;-63
2021/01/06 13:01:59;;;;;;;4.50;3.03;;;2.10;99.90;;;;;;5066457;28;20618;-60
2021/01/06 13:04:40;;;;;;;3.08;2.45;;;1.90;99.90;;;;;;5076414;28;20680;-61
2021/01/06 13:07:12;;;;;;;4.78;3.35;;;2.10;99.90;;;;;;5075586;28;20184;-59
2021/01/06 13:10:08;;;;;;;6.88;4.22;;;2.00;99.90;;;;;;5077153;28;20605;-62
2021/01/06 13:12:49;;;;;;;4.70;3.83;;;1.90;99.90;;;;;;5077114;28;20275;-63
2021/01/06 13:15:39;;;;;;;4.00;3.50;;;2.00;99.90;;;;;;5076298;28;20653;-61
2021/01/06 13:18:11;;;;;;;4.60;3.63;;;2.00;99.90;;;;;;5076575;28;20208;-62
2021/01/06 13:20:40;;;;;;;8.68;3.95;;;2.10;99.90;;;;;;5076405;28;20184;-61
2021/01/06 13:23:39;;;;;;;5.55;4.00;;;1.80;99.90;;;;;;5076065;28;20244;-60
2021/01/06 13:26:17;;;;;;;3.88;3.47;;;1.70;99.90;;;;;;5075847;28;20268;-59
2021/01/06 13:29:07;;;;;;;4.00;2.80;;;1.80;99.90;;;;;;5075891;28;20191;-60
2021/01/06 13:31:33;;;;;;;3.70;2.55;;;1.70;99.90;;;;;;5075976;28;20208;-60
2021/01/06 13:34:17;;;;;;;2.63;1.97;;;1.80;99.90;;;;;;5076102;28;20630;-60
2021/01/06 13:37:08;;;;;;;5.60;4.30;;;1.80;99.90;;;;;;5076346;28;20560;-62
2021/01/06 13:39:44;;;;;;;4.78;3.60;;;1.90;99.90;;;;;;5076319;28;20190;-61
2021/01/06 13:42:31;;;;;;;4.88;3.38;;;2.10;99.90;;;;;;5076056;28;20180;-62
2021/01/06 13:45:12;;;;;;;4.55;3.15;;;1.90;99.90;;;;;;5075764;28;20180;-59
2021/01/06 13:47:43;;;;;;;3.65;2.85;;;1.80;99.90;;;;;;5074637;28;20183;-60